createdAt,value
2018-02-15T00:01:12.959Z,52.89
2018-02-15T00:02:49.557Z,52.87
2018-02-15T00:04:25.854Z,52.87
2018-02-15T00:06:02.619Z,52.89
2018-02-15T00:07:39.842Z,52.87
2018-02-15T00:09:16.158Z,52.85
2018-02-15T00:10:52.464Z,52.85
2018-02-15T00:12:28.784Z,52.85
2018-02-15T00:14:05.732Z,52.87
2018-02-15T00:15:42.802Z,52.88
2018-02-15T00:17:19.167Z,52.85
2018-02-15T00:18:56.376Z,52.84
2018-02-15T00:20:33.264Z,52.83
2018-02-15T00:22:10.075Z,52.82
2018-02-15T00:23:47.143Z,52.82
2018-02-15T00:25:23.415Z,52.82
2018-02-15T00:27:00.079Z,52.80
2018-02-15T00:28:36.354Z,52.80
2018-02-15T00:30:12.859Z,52.81
2018-02-15T00:31:50.716Z,52.80
2018-02-15T00:33:27.357Z,52.80
2018-02-15T00:35:03.704Z,52.80
2018-02-15T00:36:43.181Z,52.81
2018-02-15T00:38:21.694Z,52.82
2018-02-15T00:39:58.627Z,52.81
2018-02-15T00:41:57.487Z,52.81
2018-02-15T00:43:34.642Z,52.79
2018-02-15T00:45:34.375Z,52.80
2018-02-15T00:47:11.234Z,52.79
2018-02-15T00:48:47.609Z,52.80
2018-02-15T00:50:24.073Z,52.79
2018-02-15T00:52:00.852Z,52.78
2018-02-15T00:53:37.116Z,52.78
2018-02-15T00:55:40.948Z,52.79
2018-02-15T00:57:17.644Z,52.78
2018-02-15T00:58:53.937Z,52.76
2018-02-15T01:00:34.154Z,52.75
2018-02-15T01:02:10.736Z,52.75
2018-02-15T01:03:47.364Z,52.76
2018-02-15T01:05:26.124Z,52.76
2018-02-15T01:07:02.480Z,52.79
2018-02-15T01:08:39.251Z,52.75
2018-02-15T01:10:15.999Z,52.76
2018-02-15T01:11:52.237Z,52.75
2018-02-15T01:13:29.269Z,52.76
2018-02-15T01:15:05.605Z,52.74
2018-02-15T01:16:42.293Z,52.74
2018-02-15T01:18:18.872Z,52.75
2018-02-15T01:19:55.596Z,52.75
2018-02-15T01:21:32.398Z,52.77
2018-02-15T01:23:09.647Z,52.78
2018-02-15T01:24:46.035Z,52.79
2018-02-15T01:26:22.914Z,52.79
2018-02-15T01:27:59.251Z,52.78
2018-02-15T01:29:36.074Z,52.77
2018-02-15T01:31:13.269Z,52.78
2018-02-15T01:32:50.338Z,52.77
2018-02-15T01:34:26.641Z,52.76
2018-02-15T01:36:03.448Z,52.74
2018-02-15T01:37:39.776Z,52.75
2018-02-15T01:39:16.058Z,52.74
2018-02-15T01:40:52.352Z,52.75
2018-02-15T01:42:29.093Z,52.75
2018-02-15T01:44:05.842Z,52.75
2018-02-15T01:45:43.331Z,52.72
2018-02-15T01:47:21.274Z,52.73
2018-02-15T01:48:57.994Z,52.74
2018-02-15T01:50:35.001Z,52.73
2018-02-15T01:53:45.304Z,52.74
2018-02-15T01:55:21.925Z,52.74
2018-02-15T01:56:59.367Z,52.74
2018-02-15T01:58:35.760Z,52.74
2018-02-15T02:00:16.532Z,52.72
2018-02-15T02:01:53.562Z,52.72
2018-02-15T02:03:29.883Z,52.76
2018-02-15T02:05:07.030Z,52.74
2018-02-15T02:06:43.343Z,52.72
2018-02-15T02:08:20.851Z,52.71
2018-02-15T02:09:57.091Z,52.71
2018-02-15T02:11:33.472Z,52.72
2018-02-15T02:13:10.918Z,52.75
2018-02-15T02:14:47.546Z,52.73
2018-02-15T02:16:24.871Z,52.73
2018-02-15T02:18:18.110Z,52.72
2018-02-15T02:19:54.996Z,52.76
2018-02-15T02:21:44.749Z,52.76
2018-02-15T02:23:21.342Z,52.75
2018-02-15T02:24:57.966Z,52.72
2018-02-15T02:26:34.385Z,52.72
2018-02-15T02:28:10.777Z,52.73
2018-02-15T02:29:47.928Z,52.72
2018-02-15T02:31:25.921Z,52.71
2018-02-15T02:34:36.257Z,52.71
2018-02-15T02:36:13.341Z,52.71
2018-02-15T02:37:50.726Z,52.71
2018-02-15T02:39:27.162Z,52.69
2018-02-15T02:41:03.537Z,52.70
2018-02-15T02:42:39.846Z,52.68
2018-02-15T02:44:16.637Z,52.67
2018-02-15T02:45:53.134Z,52.68
2018-02-15T02:47:29.467Z,52.68
2018-02-15T02:49:05.800Z,52.68
2018-02-15T02:50:42.620Z,52.68
2018-02-15T02:52:18.988Z,52.68
2018-02-15T02:53:55.299Z,52.70
2018-02-15T02:55:32.596Z,52.70
2018-02-15T02:57:09.334Z,52.71
2018-02-15T02:58:45.663Z,52.74
2018-02-15T03:00:25.498Z,52.79
2018-02-15T03:02:02.634Z,52.78
2018-02-15T03:03:39.829Z,52.73
2018-02-15T03:05:16.207Z,52.71
2018-02-15T03:06:52.648Z,52.68
2018-02-15T03:08:29.934Z,52.66
2018-02-15T03:10:06.816Z,52.65
2018-02-15T03:11:43.139Z,52.65
2018-02-15T03:13:19.531Z,52.67
2018-02-15T03:14:55.884Z,52.70
2018-02-15T03:16:34.318Z,52.70
2018-02-15T03:18:10.660Z,52.70
2018-02-15T03:19:47.005Z,52.68
2018-02-15T03:21:23.738Z,52.65
2018-02-15T03:23:00.449Z,52.62
2018-02-15T03:24:38.191Z,52.59
2018-02-15T03:26:14.516Z,52.58
2018-02-15T03:27:50.814Z,52.56
2018-02-15T03:29:27.524Z,52.55
2018-02-15T03:31:04.473Z,52.55
2018-02-15T03:32:40.934Z,52.55
2018-02-15T03:34:17.336Z,52.52
2018-02-15T03:35:54.053Z,52.50
2018-02-15T03:37:31.230Z,52.45
2018-02-15T03:39:08.315Z,52.39
2018-02-15T03:40:45.406Z,52.39
2018-02-15T03:42:22.274Z,52.37
2018-02-15T03:43:59.354Z,52.32
2018-02-15T03:45:37.473Z,52.33
2018-02-15T03:47:14.586Z,52.30
2018-02-15T03:48:51.368Z,52.28
2018-02-15T03:50:27.807Z,52.28
2018-02-15T03:52:04.141Z,52.28
2018-02-15T03:53:40.494Z,52.27
2018-02-15T03:55:17.240Z,52.28
2018-02-15T03:56:53.634Z,52.24
2018-02-15T03:58:29.921Z,52.25
2018-02-15T04:00:06.400Z,52.24
2018-02-15T04:01:43.357Z,52.22
2018-02-15T04:03:19.676Z,52.21
2018-02-15T04:04:55.961Z,52.21
2018-02-15T04:06:32.309Z,52.21
2018-02-15T04:08:13.092Z,52.20
2018-02-15T04:09:49.402Z,52.18
2018-02-15T04:11:26.553Z,52.16
2018-02-15T04:13:02.879Z,52.15
2018-02-15T04:14:39.594Z,52.13
2018-02-15T04:16:16.111Z,52.11
2018-02-15T04:17:52.582Z,52.09
2018-02-15T04:19:29.872Z,52.11
2018-02-15T04:21:06.705Z,52.10
2018-02-15T04:22:43.372Z,52.11
2018-02-15T04:24:19.709Z,52.10
2018-02-15T04:25:56.218Z,52.10
2018-02-15T04:27:32.851Z,52.08
2018-02-15T04:29:09.156Z,52.07
2018-02-15T04:30:46.576Z,52.05
2018-02-15T04:32:22.935Z,52.05
2018-02-15T04:34:01.096Z,52.02
2018-02-15T04:35:38.187Z,52.01
2018-02-15T04:37:15.290Z,52.00
2018-02-15T04:38:51.547Z,52.00
2018-02-15T04:40:28.133Z,52.00
2018-02-15T04:42:05.258Z,51.98
2018-02-15T04:43:41.556Z,51.96
2018-02-15T04:45:19.187Z,51.97
2018-02-15T04:46:56.223Z,51.97
2018-02-15T04:50:04.553Z,51.98
2018-02-15T04:51:41.693Z,51.99
2018-02-15T04:53:18.337Z,51.99
2018-02-15T04:54:54.575Z,51.98
2018-02-15T04:56:30.821Z,51.99
2018-02-15T04:58:07.107Z,51.98
2018-02-15T04:59:44.736Z,51.98
2018-02-15T05:01:22.033Z,51.98
2018-02-15T05:02:58.397Z,51.97
2018-02-15T05:04:34.730Z,51.99
2018-02-15T05:06:11.473Z,51.99
2018-02-15T05:07:47.853Z,52.00
2018-02-15T05:09:25.049Z,52.00
2018-02-15T05:11:02.153Z,52.01
2018-02-15T05:12:39.381Z,52.01
2018-02-15T05:14:15.769Z,52.01
2018-02-15T05:15:52.543Z,52.01
2018-02-15T05:17:28.897Z,52.02
2018-02-15T05:19:05.658Z,52.04
2018-02-15T05:20:42.013Z,52.05
2018-02-15T05:22:18.339Z,52.04
2018-02-15T05:23:54.652Z,52.06
2018-02-15T05:25:32.165Z,52.06
2018-02-15T05:27:09.256Z,52.08
2018-02-15T05:28:46.352Z,52.08
2018-02-15T05:30:24.460Z,52.08
2018-02-15T05:32:01.269Z,52.09
2018-02-15T05:33:38.205Z,52.09
2018-02-15T05:35:14.561Z,52.10
2018-02-15T05:36:51.535Z,52.12
2018-02-15T05:38:29.114Z,52.13
2018-02-15T05:40:06.386Z,52.14
2018-02-15T05:41:42.911Z,52.13
2018-02-15T05:43:19.963Z,52.15
2018-02-15T05:44:56.356Z,52.15
2018-02-15T05:46:34.159Z,52.16
2018-02-15T05:48:10.472Z,52.17
2018-02-15T05:49:46.850Z,52.17
2018-02-15T05:51:23.602Z,52.19
2018-02-15T05:52:59.959Z,52.20
2018-02-15T05:54:37.317Z,52.21
2018-02-15T05:56:13.654Z,52.23
2018-02-15T05:57:51.194Z,52.24
2018-02-15T05:59:27.540Z,52.25
2018-02-15T06:01:04.145Z,52.26
2018-02-15T06:02:40.682Z,52.28
2018-02-15T06:04:17.431Z,52.31
2018-02-15T06:05:53.757Z,52.31
2018-02-15T06:07:30.036Z,52.33
2018-02-15T06:09:06.621Z,52.33
2018-02-15T06:10:44.168Z,52.36
2018-02-15T06:12:20.581Z,52.40
2018-02-15T06:13:56.922Z,52.41
2018-02-15T06:15:33.512Z,52.43
2018-02-15T06:17:10.371Z,52.44
2018-02-15T06:18:46.720Z,52.46
2018-02-15T06:20:23.083Z,52.46
2018-02-15T06:21:59.888Z,52.47
2018-02-15T06:23:37.453Z,52.50
2018-02-15T06:25:13.874Z,52.52
2018-02-15T06:26:51.044Z,52.54
2018-02-15T06:28:27.432Z,52.56
2018-02-15T06:30:05.251Z,52.59
2018-02-15T06:31:42.365Z,52.60
2018-02-15T06:33:18.745Z,52.61
2018-02-15T06:34:55.794Z,52.63
2018-02-15T06:36:32.677Z,52.65
2018-02-15T06:38:09.027Z,52.68
2018-02-15T06:39:45.573Z,52.71
2018-02-15T06:41:21.979Z,52.71
2018-02-15T06:42:58.870Z,52.73
2018-02-15T06:44:35.162Z,52.75
2018-02-15T06:46:12.464Z,52.78
2018-02-15T06:47:48.855Z,52.80
2018-02-15T06:49:25.649Z,52.82
2018-02-15T06:51:01.979Z,52.82
2018-02-15T06:54:22.249Z,52.89
2018-02-15T06:55:58.861Z,52.96
2018-02-15T06:57:35.344Z,53.01
2018-02-15T06:59:11.806Z,53.01
2018-02-15T07:00:48.475Z,53.02
2018-02-15T07:02:25.416Z,53.06
2018-02-15T07:04:01.948Z,53.05
2018-02-15T07:05:38.442Z,53.07
2018-02-15T07:07:15.537Z,53.07
2018-02-15T07:08:52.478Z,53.11
2018-02-15T07:10:28.910Z,53.12
2018-02-15T07:12:05.273Z,53.17
2018-02-15T07:13:42.491Z,53.19
2018-02-15T07:15:20.281Z,53.22
2018-02-15T07:16:57.718Z,53.27
2018-02-15T07:18:34.808Z,53.27
2018-02-15T07:20:12.006Z,53.32
2018-02-15T07:21:48.998Z,53.36
2018-02-15T07:23:25.334Z,53.35
2018-02-15T07:25:02.536Z,53.35
2018-02-15T07:26:39.611Z,53.39
2018-02-15T07:28:16.751Z,53.42
2018-02-15T07:29:53.320Z,53.46
2018-02-15T07:31:30.216Z,53.49
2018-02-15T07:33:07.372Z,53.52
2018-02-15T07:34:45.119Z,53.56
2018-02-15T07:36:21.516Z,53.62
2018-02-15T07:37:57.848Z,53.57
2018-02-15T07:39:34.684Z,53.60
2018-02-15T07:41:11.397Z,53.67
2018-02-15T07:42:48.551Z,53.73
2018-02-15T07:44:24.919Z,53.72
2018-02-15T07:46:01.542Z,53.75
2018-02-15T07:47:38.393Z,53.79
2018-02-15T07:49:15.625Z,53.87
2018-02-15T07:50:52.137Z,53.85
2018-02-15T07:52:29.445Z,53.83
2018-02-15T07:54:06.508Z,53.84
2018-02-15T07:55:43.042Z,53.85
2018-02-15T07:57:19.452Z,53.85
2018-02-15T07:58:55.986Z,53.90
2018-02-15T08:00:33.265Z,53.93
2018-02-15T08:02:09.786Z,53.94
2018-02-15T08:03:46.306Z,53.94
2018-02-15T08:05:23.568Z,53.95
2018-02-15T08:07:00.382Z,53.99
2018-02-15T08:08:36.756Z,54.02
2018-02-15T08:10:13.186Z,54.03
2018-02-15T08:11:49.649Z,54.05
2018-02-15T08:13:26.479Z,54.11
2018-02-15T08:15:03.000Z,54.13
2018-02-15T08:16:40.366Z,54.17
2018-02-15T08:18:16.709Z,54.21
2018-02-15T08:19:53.499Z,54.25
2018-02-15T08:21:29.969Z,54.26
2018-02-15T08:23:06.404Z,54.28
2018-02-15T08:24:42.773Z,54.32
2018-02-15T08:26:19.678Z,54.35
2018-02-15T08:27:56.153Z,54.36
2018-02-15T08:29:32.744Z,54.36
2018-02-15T08:31:10.146Z,54.41
2018-02-15T08:32:46.945Z,54.46
2018-02-15T08:34:23.343Z,54.56
2018-02-15T08:36:00.966Z,54.66
2018-02-15T08:37:37.553Z,54.66
2018-02-15T08:39:14.531Z,54.60
2018-02-15T08:40:50.789Z,54.55
2018-02-15T08:42:27.185Z,54.54
2018-02-15T08:44:03.773Z,54.57
2018-02-15T08:45:40.911Z,54.59
2018-02-15T08:47:17.246Z,54.60
2018-02-15T08:48:53.699Z,54.65
2018-02-15T08:50:30.085Z,54.68
2018-02-15T08:52:06.901Z,54.74
2018-02-15T08:53:44.854Z,54.74
2018-02-15T08:55:21.309Z,54.81
2018-02-15T08:56:58.459Z,54.90
2018-02-15T08:58:35.134Z,54.86
2018-02-15T09:00:12.136Z,54.85
2018-02-15T09:01:50.342Z,54.84
2018-02-15T09:03:28.180Z,54.83
2018-02-15T09:05:05.292Z,54.88
2018-02-15T09:06:41.703Z,54.90
2018-02-15T09:08:18.151Z,54.92
2018-02-15T09:09:54.542Z,54.95
2018-02-15T09:11:31.279Z,54.94
2018-02-15T09:13:08.446Z,54.98
2018-02-15T09:14:46.398Z,54.99
2018-02-15T09:16:23.211Z,55.02
2018-02-15T09:18:00.196Z,55.05
2018-02-15T09:19:37.125Z,55.04
2018-02-15T09:21:15.078Z,55.09
2018-02-15T09:22:52.516Z,55.14
2018-02-15T09:24:29.648Z,55.21
2018-02-15T09:26:06.897Z,55.24
2018-02-15T09:27:43.510Z,55.27
2018-02-15T09:29:20.085Z,55.30
2018-02-15T09:30:57.286Z,55.33
2018-02-15T09:32:34.314Z,55.38
2018-02-15T09:34:14.079Z,55.39
2018-02-15T09:35:51.203Z,55.37
2018-02-15T09:37:29.432Z,55.39
2018-02-15T09:39:06.040Z,55.37
2018-02-15T09:40:43.378Z,55.38
2018-02-15T09:42:19.782Z,55.41
2018-02-15T09:43:56.740Z,55.47
2018-02-15T09:45:33.653Z,55.45
2018-02-15T09:47:10.712Z,55.46
2018-02-15T09:48:47.067Z,55.45
2018-02-15T09:50:23.804Z,55.47
2018-02-15T09:52:00.131Z,55.50
2018-02-15T09:53:37.881Z,55.55
2018-02-15T09:55:14.214Z,55.59
2018-02-15T09:56:52.992Z,55.62
2018-02-15T09:58:29.704Z,55.62
2018-02-15T10:00:06.620Z,55.63
2018-02-15T10:01:43.481Z,55.67
2018-02-15T10:03:21.415Z,55.69
2018-02-15T10:04:58.452Z,55.72
2018-02-15T10:06:34.820Z,55.79
2018-02-15T10:08:11.061Z,55.80
2018-02-15T10:09:47.938Z,55.79
2018-02-15T10:11:24.261Z,55.77
2018-02-15T10:13:00.581Z,55.77
2018-02-15T10:14:36.857Z,55.79
2018-02-15T10:16:13.306Z,55.80
2018-02-15T10:17:50.496Z,55.84
2018-02-15T10:19:27.141Z,55.86
2018-02-15T10:21:03.788Z,55.89
2018-02-15T10:22:40.338Z,55.94
2018-02-15T10:24:16.613Z,55.95
2018-02-15T10:25:52.835Z,55.95
2018-02-15T10:27:30.107Z,55.98
2018-02-15T10:29:06.394Z,55.99
2018-02-15T10:30:43.389Z,56.00
2018-02-15T10:32:19.778Z,56.03
2018-02-15T10:33:56.455Z,56.06
2018-02-15T10:35:32.840Z,56.11
2018-02-15T10:37:09.275Z,56.11
2018-02-15T10:38:45.571Z,56.16
2018-02-15T10:40:22.424Z,56.18
2018-02-15T10:41:58.689Z,56.22
2018-02-15T10:43:35.013Z,56.25
2018-02-15T10:45:12.124Z,56.30
2018-02-15T10:46:51.805Z,56.35
2018-02-15T10:48:28.481Z,56.39
2018-02-15T10:50:05.710Z,56.43
2018-02-15T10:51:42.717Z,56.51
2018-02-15T10:53:19.407Z,56.60
2018-02-15T10:54:55.663Z,56.66
2018-02-15T10:56:32.529Z,56.69
2018-02-15T10:58:08.834Z,56.68
2018-02-15T10:59:45.515Z,56.59
2018-02-15T11:01:26.034Z,56.57
2018-02-15T11:03:06.262Z,56.62
2018-02-15T11:04:46.942Z,56.67
2018-02-15T11:06:23.728Z,56.78
2018-02-15T11:08:00.191Z,56.83
2018-02-15T11:09:36.747Z,56.91
2018-02-15T11:11:13.047Z,56.88
2018-02-15T11:12:49.758Z,56.85
2018-02-15T11:14:26.000Z,56.82
2018-02-15T11:16:02.678Z,56.80
2018-02-15T11:17:40.129Z,56.80
2018-02-15T11:19:16.872Z,56.80
2018-02-15T11:20:53.247Z,56.84
2018-02-15T11:22:29.802Z,56.87
2018-02-15T11:24:06.919Z,56.92
2018-02-15T11:25:44.271Z,56.94
2018-02-15T11:27:20.580Z,57.05
2018-02-15T11:28:58.486Z,57.13
2018-02-15T11:30:35.218Z,57.16
2018-02-15T11:32:11.979Z,57.25
2018-02-15T11:33:48.293Z,57.32
2018-02-15T11:35:24.833Z,57.40
2018-02-15T11:37:02.192Z,57.48
2018-02-15T11:38:38.989Z,57.52
2018-02-15T11:40:16.015Z,57.50
2018-02-15T11:41:52.809Z,57.51
2018-02-15T11:43:30.305Z,57.54
2018-02-15T11:45:08.289Z,57.59
2018-02-15T11:46:44.891Z,57.62
2018-02-15T11:48:21.996Z,57.61
2018-02-15T11:49:59.522Z,57.57
2018-02-15T11:51:36.501Z,57.57
2018-02-15T11:53:14.361Z,57.57
2018-02-15T11:54:52.571Z,57.56
2018-02-15T11:56:28.924Z,57.53
2018-02-15T11:58:05.962Z,57.55
2018-02-15T11:59:42.352Z,57.60
2018-02-15T12:01:19.772Z,57.67
2018-02-15T12:02:56.207Z,57.73
2018-02-15T12:04:33.873Z,57.74
2018-02-15T12:06:11.119Z,57.76
2018-02-15T12:07:47.564Z,57.79
2018-02-15T12:09:24.033Z,57.79
2018-02-15T12:11:01.231Z,57.81
2018-02-15T12:12:37.887Z,57.88
2018-02-15T12:14:14.405Z,57.92
2018-02-15T12:15:51.689Z,57.93
2018-02-15T12:17:29.210Z,58.00
2018-02-15T12:19:05.616Z,57.98
2018-02-15T12:20:42.111Z,57.99
2018-02-15T12:22:18.569Z,57.98
2018-02-15T12:23:57.373Z,57.96
2018-02-15T12:25:33.731Z,57.97
2018-02-15T12:27:10.051Z,57.95
2018-02-15T12:28:46.451Z,57.97
2018-02-15T12:30:26.305Z,58.01
2018-02-15T12:32:04.483Z,58.08
2018-02-15T12:33:41.140Z,58.13
2018-02-15T12:35:17.475Z,58.14
2018-02-15T12:36:54.514Z,58.23
2018-02-15T12:38:31.728Z,58.30
2018-02-15T12:40:08.122Z,58.35
2018-02-15T12:41:44.626Z,58.38
2018-02-15T12:43:22.231Z,58.39
2018-02-15T12:44:59.948Z,58.41
2018-02-15T12:46:36.831Z,58.45
2018-02-15T12:48:13.222Z,58.48
2018-02-15T12:49:50.009Z,58.49
2018-02-15T12:51:26.486Z,58.51
2018-02-15T12:53:03.886Z,58.52
2018-02-15T12:54:41.251Z,58.58
2018-02-15T12:56:17.596Z,58.67
2018-02-15T12:57:55.515Z,58.73
2018-02-15T12:59:32.397Z,58.81
2018-02-15T13:01:09.222Z,58.83
2018-02-15T13:02:46.016Z,58.82
2018-02-15T13:04:23.306Z,58.81
2018-02-15T13:05:59.822Z,58.87
2018-02-15T13:07:36.512Z,58.92
2018-02-15T13:09:13.465Z,58.99
2018-02-15T13:10:52.008Z,58.97
2018-02-15T13:12:44.040Z,58.90
2018-02-15T13:14:21.751Z,58.87
2018-02-15T13:17:08.995Z,58.87
2018-02-15T13:18:45.737Z,58.88
2018-02-15T13:20:23.098Z,58.91
2018-02-15T13:22:00.848Z,58.92
2018-02-15T13:23:37.891Z,58.93
2018-02-15T13:25:14.386Z,58.94
2018-02-15T13:26:52.364Z,58.96
2018-02-15T13:28:39.083Z,58.99
2018-02-15T13:30:18.239Z,59.04
2018-02-15T13:31:55.048Z,59.06
2018-02-15T13:33:31.678Z,59.08
2018-02-15T13:35:09.785Z,59.11
2018-02-15T13:36:46.379Z,59.12
2018-02-15T13:38:23.555Z,59.14
2018-02-15T13:40:00.779Z,59.15
2018-02-15T13:41:37.756Z,59.16
2018-02-15T13:43:14.147Z,59.19
2018-02-15T13:44:50.783Z,59.20
2018-02-15T13:46:27.383Z,59.23
2018-02-15T13:48:05.069Z,59.26
2018-02-15T13:49:42.272Z,59.29
2018-02-15T13:51:18.730Z,59.34
2018-02-15T13:52:55.791Z,59.35
2018-02-15T13:54:33.163Z,59.39
2018-02-15T13:56:10.362Z,59.45
2018-02-15T13:57:47.309Z,59.48
2018-02-15T13:59:24.860Z,59.54
2018-02-15T14:01:01.547Z,59.59
2018-02-15T14:02:38.587Z,59.60
2018-02-15T14:04:15.918Z,59.63
2018-02-15T14:05:53.334Z,59.64
2018-02-15T14:07:29.786Z,59.62
2018-02-15T14:09:07.039Z,59.60
2018-02-15T14:10:43.534Z,59.63
2018-02-15T14:12:20.240Z,59.65
2018-02-15T14:13:57.704Z,59.67
2018-02-15T14:15:34.783Z,59.68
2018-02-15T14:17:11.951Z,59.69
2018-02-15T14:18:48.878Z,59.68
2018-02-15T14:20:26.028Z,59.70
2018-02-15T14:22:04.309Z,59.74
2018-02-15T14:23:41.954Z,59.78
2018-02-15T14:25:18.894Z,59.79
2018-02-15T14:26:55.859Z,59.83
2018-02-15T14:28:33.880Z,59.84
2018-02-15T14:30:10.471Z,59.86
2018-02-15T14:31:48.328Z,59.85
2018-02-15T14:33:25.501Z,59.87
2018-02-15T14:35:04.057Z,59.89
2018-02-15T14:36:42.492Z,59.93
2018-02-15T14:38:24.548Z,59.94
2018-02-15T14:40:02.858Z,59.96
2018-02-15T14:41:40.493Z,59.98
2018-02-15T14:43:18.063Z,60.00
2018-02-15T14:44:54.852Z,60.00
2018-02-15T14:46:32.132Z,60.03
2018-02-15T14:49:47.611Z,60.09
2018-02-15T14:51:26.492Z,60.12
2018-02-15T14:53:05.613Z,60.16
2018-02-15T14:54:45.254Z,60.18
2018-02-15T14:56:25.007Z,60.21
2018-02-15T14:58:06.364Z,60.23
2018-02-15T14:59:44.596Z,60.25
2018-02-15T15:01:24.498Z,60.26
2018-02-15T15:03:04.798Z,60.29
2018-02-15T15:04:41.868Z,60.32
2018-02-15T15:06:21.073Z,60.35
2018-02-15T15:07:58.893Z,60.38
2018-02-15T15:09:38.028Z,60.40
2018-02-15T15:11:16.762Z,60.42
2018-02-15T15:12:54.514Z,60.43
2018-02-15T15:14:31.481Z,60.47
2018-02-15T15:16:13.479Z,60.51
2018-02-15T15:17:52.339Z,60.54
2018-02-15T15:19:29.277Z,60.57
2018-02-15T15:21:10.789Z,60.58
2018-02-15T15:22:49.255Z,60.60
2018-02-15T15:24:26.719Z,60.63
2018-02-15T15:26:04.399Z,60.65
2018-02-15T15:27:44.009Z,60.68
2018-02-15T15:29:22.631Z,60.71
2018-02-15T15:31:04.062Z,60.73
2018-02-15T15:32:44.653Z,60.75
2018-02-15T15:34:25.168Z,60.76
2018-02-15T15:36:17.333Z,60.80
2018-02-15T15:37:58.437Z,60.83
2018-02-15T15:39:37.420Z,60.86
2018-02-15T15:41:16.816Z,60.90
2018-02-15T15:42:57.283Z,60.93
2018-02-15T15:44:39.615Z,60.97
2018-02-15T15:46:19.645Z,60.99
2018-02-15T15:47:59.808Z,61.01
2018-02-15T15:49:38.398Z,61.03
2018-02-15T15:51:18.365Z,61.05
2018-02-15T15:52:58.334Z,61.07
2018-02-15T15:54:37.349Z,61.08
2018-02-15T15:56:16.193Z,61.08
2018-02-15T15:57:59.565Z,61.11
2018-02-15T15:59:39.759Z,61.15
2018-02-15T16:01:21.528Z,61.17
2018-02-15T16:03:01.725Z,61.22
2018-02-15T16:04:42.086Z,61.25
2018-02-15T16:06:23.025Z,61.28
2018-02-15T16:08:03.121Z,61.31
2018-02-15T16:09:44.415Z,61.32
2018-02-15T16:11:24.693Z,61.35
2018-02-15T16:13:04.398Z,61.36
2018-02-15T16:14:46.485Z,61.37
2018-02-15T16:16:25.869Z,61.39
2018-02-15T16:18:06.566Z,61.42
2018-02-15T16:19:47.316Z,61.44
2018-02-15T16:21:28.565Z,61.46
2018-02-15T16:23:08.869Z,61.50
2018-02-15T16:24:50.130Z,61.51
2018-02-15T16:26:30.580Z,61.54
2018-02-15T16:28:12.049Z,61.56
2018-02-15T16:29:51.053Z,61.59
2018-02-15T16:31:35.099Z,61.61
2018-02-15T16:33:15.860Z,61.63
2018-02-15T16:34:58.556Z,61.66
2018-02-15T16:36:39.895Z,61.69
2018-02-15T16:38:20.594Z,61.72
2018-02-15T16:40:05.340Z,61.75
2018-02-15T16:41:47.307Z,61.78
2018-02-15T16:43:26.205Z,61.79
2018-02-15T16:45:11.499Z,61.81
2018-02-15T16:46:51.644Z,61.85
2018-02-15T16:48:33.276Z,61.86
2018-02-15T16:50:13.065Z,61.88
2018-02-15T16:51:57.604Z,61.93
2018-02-15T16:53:37.743Z,61.96
2018-02-15T16:55:19.471Z,61.99
2018-02-15T16:56:58.624Z,62.00
2018-02-15T16:58:38.992Z,62.04
2018-02-15T17:00:20.562Z,62.05
2018-02-15T17:02:01.304Z,62.06
2018-02-15T17:03:47.822Z,62.09
2018-02-15T17:11:19.412Z,62.16
2018-02-15T17:13:01.335Z,62.18
2018-02-15T17:14:42.479Z,62.22
2018-02-15T17:16:24.606Z,62.24
2018-02-15T17:18:03.918Z,62.26
2018-02-15T17:19:44.869Z,62.29
2018-02-15T17:21:25.478Z,62.33
2018-02-15T17:23:10.598Z,62.35
2018-02-15T17:24:50.207Z,62.40
2018-02-15T17:26:30.984Z,62.43
2018-02-15T17:28:11.467Z,62.46
2018-02-15T17:29:53.280Z,62.48
2018-02-15T17:31:32.504Z,62.50
2018-02-15T17:33:11.608Z,62.51
2018-02-15T17:34:55.180Z,62.52
2018-02-15T17:36:37.198Z,62.56
2018-02-15T17:38:20.690Z,62.61
2018-02-15T17:40:04.943Z,62.65
2018-02-15T17:41:55.719Z,62.67
2018-02-15T17:43:38.589Z,62.72
2018-02-15T17:45:21.534Z,62.78
2018-02-15T17:47:13.058Z,62.86
2018-02-15T17:48:56.136Z,62.94
2018-02-15T17:50:44.772Z,63.02
2018-02-15T17:52:50.111Z,63.09
2018-02-15T17:54:36.878Z,63.17
2018-02-15T17:56:20.662Z,63.23
2018-02-15T17:58:04.575Z,63.25
2018-02-15T17:59:51.533Z,63.21
2018-02-15T18:01:42.410Z,63.15
2018-02-15T18:03:29.374Z,63.16
2018-02-15T18:05:28.894Z,63.19
2018-02-15T18:07:11.140Z,63.25
2018-02-15T18:10:30.114Z,63.32
2018-02-15T18:12:13.158Z,63.33
2018-02-15T18:13:54.837Z,63.31
2018-02-15T18:16:02.444Z,63.31
2018-02-15T18:19:44.933Z,63.32
2018-02-15T18:23:21.632Z,63.32
2018-02-15T18:25:05.129Z,63.34
2018-02-15T18:26:47.395Z,63.36
2018-02-15T18:28:34.035Z,63.40
2018-02-15T18:30:18.236Z,63.46
2018-02-15T18:32:03.503Z,63.52
2018-02-15T18:33:48.248Z,63.60
2018-02-15T18:35:34.919Z,63.68
2018-02-15T18:37:16.010Z,63.74
2018-02-15T18:38:57.351Z,63.78
2018-02-15T18:40:40.617Z,63.82
2018-02-15T18:42:22.860Z,63.83
2018-02-15T18:44:06.302Z,63.82
2018-02-15T18:45:52.379Z,63.82
2018-02-15T18:47:35.274Z,63.81
2018-02-15T18:49:25.917Z,63.81
2018-02-15T18:51:11.690Z,63.83
2018-02-15T18:52:59.257Z,63.83
2018-02-15T18:54:44.169Z,63.83
2018-02-15T18:56:28.347Z,63.86
2018-02-15T18:58:12.877Z,63.87
2018-02-15T18:59:54.133Z,63.87
2018-02-15T19:01:36.554Z,63.89
2018-02-15T19:03:20.899Z,63.91
2018-02-15T19:05:02.918Z,63.92
2018-02-15T19:06:48.024Z,63.93
2018-02-15T19:08:30.537Z,63.94
2018-02-15T19:10:13.592Z,63.99
2018-02-15T19:11:58.583Z,64.05
2018-02-15T19:13:41.734Z,64.07
2018-02-15T19:15:27.741Z,64.08
2018-02-15T19:17:14.643Z,64.13
2018-02-15T19:18:56.974Z,64.20
2018-02-15T19:20:55.721Z,64.26
2018-02-15T19:22:48.588Z,64.33
2018-02-15T19:24:49.568Z,64.37
2018-02-15T19:26:31.920Z,64.40
2018-02-15T19:28:17.378Z,64.46
2018-02-15T19:30:00.015Z,64.51
2018-02-15T19:31:42.978Z,64.55
2018-02-15T19:33:24.291Z,64.57
2018-02-15T19:35:05.825Z,64.61
2018-02-15T19:36:50.947Z,64.61
2018-02-15T19:38:34.758Z,64.63
2018-02-15T19:40:20.196Z,64.68
2018-02-15T19:42:03.455Z,64.71
2018-02-15T19:43:46.918Z,64.72
2018-02-15T19:45:32.710Z,64.77
2018-02-15T19:47:11.542Z,64.78
2018-02-15T19:48:53.921Z,64.79
2018-02-15T19:50:36.454Z,64.81
2018-02-15T19:52:19.303Z,64.82
2018-02-15T19:54:04.530Z,64.84
2018-02-15T19:55:56.273Z,64.87
2018-02-15T19:57:47.547Z,64.90
2018-02-15T19:59:35.087Z,64.94
2018-02-15T20:01:17.201Z,64.95
2018-02-15T20:02:59.107Z,64.95
2018-02-15T20:04:40.645Z,64.93
2018-02-15T20:06:23.690Z,64.91
2018-02-15T20:08:08.552Z,64.84
2018-02-15T20:09:50.484Z,64.78
2018-02-15T20:11:32.364Z,64.76
2018-02-15T20:13:16.030Z,64.79
2018-02-15T20:14:57.782Z,64.83
2018-02-15T20:16:41.186Z,64.85
2018-02-15T20:18:21.107Z,64.85
2018-02-15T20:20:05.465Z,64.87
2018-02-15T20:21:46.493Z,64.92
2018-02-15T20:23:34.478Z,64.95
2018-02-15T20:25:15.190Z,65.00
2018-02-15T20:26:59.861Z,65.02
2018-02-15T20:28:41.212Z,65.08
2018-02-15T20:30:24.638Z,65.11
2018-02-15T20:32:11.704Z,65.13
2018-02-15T20:33:56.032Z,65.15
2018-02-15T20:35:40.043Z,65.16
2018-02-15T20:37:23.401Z,65.17
2018-02-15T20:41:14.484Z,65.19
2018-02-15T20:42:53.250Z,65.18
2018-02-15T20:44:35.208Z,65.16
2018-02-15T20:46:22.802Z,65.15
2018-02-15T20:48:03.114Z,65.15
2018-02-15T20:49:48.080Z,65.15
2018-02-15T20:55:51.600Z,65.16
2018-02-15T20:57:34.529Z,65.17
2018-02-15T20:59:24.388Z,65.19
2018-02-15T21:01:05.832Z,65.21
2018-02-15T21:02:50.283Z,65.18
2018-02-15T21:04:34.895Z,65.14
2018-02-15T21:06:18.246Z,65.16
2018-02-15T21:08:15.104Z,65.20
2018-02-15T21:09:55.579Z,65.23
2018-02-15T21:11:35.925Z,65.25
2018-02-15T21:13:15.661Z,65.26
2018-02-15T21:14:53.733Z,65.25
2018-02-15T21:16:32.646Z,65.25
2018-02-15T21:18:13.299Z,65.27
2018-02-15T21:19:55.229Z,65.29
2018-02-15T21:21:35.984Z,65.32
2018-02-15T21:23:15.699Z,65.34
2018-02-15T21:24:56.711Z,65.36
2018-02-15T21:26:36.119Z,65.37
2018-02-15T21:28:17.286Z,65.38
2018-02-15T21:29:57.220Z,65.39
2018-02-15T21:31:36.814Z,65.39
2018-02-15T21:33:15.685Z,65.37
2018-02-15T21:34:54.562Z,65.35
2018-02-15T21:36:35.115Z,65.36
2018-02-15T21:38:13.831Z,65.36
2018-02-15T21:39:52.646Z,65.37